createdAt,value
2018-12-20T00:00:01.323Z,5.30
2018-12-20T00:02:30.044Z,6.10
2018-12-20T00:04:58.844Z,5.60
2018-12-20T00:07:27.449Z,5.57
2018-12-20T00:09:56.227Z,5.40
2018-12-20T00:12:24.852Z,5.17
2018-12-20T00:14:54.058Z,5.47
2018-12-20T00:17:28.510Z,6.40
2018-12-20T00:19:57.403Z,5.77
2018-12-20T00:22:26.190Z,5.80
2018-12-20T00:24:54.876Z,5.50
2018-12-20T00:27:23.789Z,5.87
2018-12-20T00:29:52.869Z,6.33
2018-12-20T00:32:21.745Z,4.97
2018-12-20T00:34:50.594Z,5.83
2018-12-20T00:37:20.327Z,5.73
2018-12-20T00:39:49.949Z,5.90
2018-12-20T00:42:18.916Z,6.97
2018-12-20T00:44:48.301Z,6.90
2018-12-20T00:47:16.943Z,8.47
2018-12-20T00:49:45.504Z,6.63
2018-12-20T00:52:14.164Z,5.87
2018-12-20T00:54:42.931Z,6.03
2018-12-20T00:57:11.603Z,5.90
2018-12-20T00:59:40.337Z,5.60
2018-12-20T01:02:09.110Z,6.00
2018-12-20T01:04:38.003Z,5.83
2018-12-20T01:07:06.956Z,6.03
2018-12-20T01:09:35.557Z,7.27
2018-12-20T01:12:04.553Z,6.10
2018-12-20T01:14:33.171Z,6.10
2018-12-20T01:17:01.907Z,5.70
2018-12-20T01:19:30.638Z,7.73
2018-12-20T01:21:59.398Z,6.83
2018-12-20T01:24:28.259Z,9.30
2018-12-20T01:26:56.902Z,6.13
2018-12-20T01:29:26.287Z,6.20
2018-12-20T01:31:55.347Z,6.30
2018-12-20T01:34:23.952Z,6.63
2018-12-20T01:36:52.788Z,9.93
2018-12-20T01:39:21.659Z,6.67
2018-12-20T01:41:50.288Z,6.07
2018-12-20T01:44:19.185Z,6.47
2018-12-20T01:46:48.077Z,7.20
2018-12-20T01:49:16.693Z,7.87
2018-12-20T01:51:45.196Z,7.80
2018-12-20T01:54:13.931Z,7.43
2018-12-20T01:56:42.682Z,7.07
2018-12-20T01:59:11.672Z,7.10
2018-12-20T02:01:40.709Z,6.90
2018-12-20T02:04:09.999Z,9.60
2018-12-20T02:06:38.983Z,7.50
2018-12-20T02:09:09.880Z,7.63
2018-12-20T02:11:38.912Z,7.60
2018-12-20T02:14:07.761Z,8.43
2018-12-20T02:16:36.784Z,7.70
2018-12-20T02:19:05.764Z,8.10
2018-12-20T02:21:34.550Z,7.80
2018-12-20T02:24:03.454Z,8.40
2018-12-20T02:26:32.048Z,8.00
2018-12-20T02:29:00.687Z,8.73
2018-12-20T02:31:29.420Z,8.33
2018-12-20T02:33:58.452Z,8.73
2018-12-20T02:36:27.191Z,12.97
2018-12-20T02:38:55.867Z,8.90
2018-12-20T02:41:24.803Z,8.47
2018-12-20T02:43:54.743Z,8.73
2018-12-20T02:46:23.587Z,8.77
2018-12-20T02:48:52.559Z,8.57
2018-12-20T02:51:21.440Z,8.43
2018-12-20T02:53:50.745Z,8.80
2018-12-20T02:56:19.519Z,8.40
2018-12-20T02:58:48.491Z,8.00
2018-12-20T03:01:17.269Z,7.63
2018-12-20T03:03:46.232Z,8.17
2018-12-20T03:06:15.103Z,6.93
2018-12-20T03:08:44.021Z,7.33
2018-12-20T03:11:13.985Z,7.63
2018-12-20T03:13:42.777Z,7.37
2018-12-20T03:16:11.471Z,7.23
2018-12-20T03:18:40.406Z,9.20
2018-12-20T03:21:09.352Z,7.17
2018-12-20T03:23:38.057Z,7.33
2018-12-20T03:26:06.990Z,7.73
2018-12-20T03:28:35.760Z,7.47
2018-12-20T03:31:04.706Z,7.97
2018-12-20T03:33:33.788Z,7.70
2018-12-20T03:36:02.685Z,8.10
2018-12-20T03:38:31.609Z,7.90
2018-12-20T03:41:00.561Z,7.30
2018-12-20T03:43:29.542Z,7.70
2018-12-20T03:45:58.524Z,7.23
2018-12-20T03:48:27.399Z,8.63
2018-12-20T03:50:56.027Z,8.30
2018-12-20T03:53:24.923Z,8.77
2018-12-20T03:55:53.876Z,8.87
2018-12-20T03:58:23.151Z,8.67
2018-12-20T04:00:52.013Z,8.53
2018-12-20T04:03:21.233Z,8.60
2018-12-20T04:05:50.288Z,8.67
2018-12-20T04:08:18.915Z,8.50
2018-12-20T04:10:48.101Z,9.67
2018-12-20T04:13:16.928Z,8.90
2018-12-20T04:15:45.867Z,7.87
2018-12-20T04:18:14.503Z,7.93
2018-12-20T04:20:43.599Z,7.73
2018-12-20T04:23:12.941Z,7.23
2018-12-20T04:25:41.767Z,7.20
2018-12-20T04:28:11.397Z,7.37
2018-12-20T04:30:40.187Z,6.70
2018-12-20T04:33:08.982Z,6.80
2018-12-20T04:35:37.967Z,7.50
2018-12-20T04:38:06.949Z,7.07
2018-12-20T04:40:35.867Z,6.60
2018-12-20T04:43:04.559Z,6.63
2018-12-20T04:45:33.418Z,6.80
2018-12-20T04:48:02.084Z,6.30
2018-12-20T04:50:30.641Z,5.90
2018-12-20T04:52:59.253Z,7.53
2018-12-20T04:55:28.090Z,6.23
2018-12-20T04:57:57.033Z,6.50
2018-12-20T05:00:25.682Z,5.97
2018-12-20T05:02:54.278Z,6.73
2018-12-20T05:05:23.125Z,5.97
2018-12-20T05:07:51.728Z,6.10
2018-12-20T05:10:20.680Z,6.23
2018-12-20T05:12:49.395Z,6.17
2018-12-20T05:15:17.898Z,5.53
2018-12-20T05:17:46.511Z,6.40
2018-12-20T05:20:15.101Z,6.20
2018-12-20T05:22:43.958Z,6.37
2018-12-20T05:25:12.676Z,6.30
2018-12-20T05:27:41.549Z,5.90
2018-12-20T05:30:10.163Z,7.37
2018-12-20T05:32:40.161Z,5.80
2018-12-20T05:35:08.731Z,6.20
2018-12-20T05:37:37.711Z,6.10
2018-12-20T05:40:07.879Z,5.50
2018-12-20T05:42:36.650Z,6.20
2018-12-20T05:45:05.875Z,5.73
2018-12-20T05:47:34.779Z,6.77
2018-12-20T05:50:03.522Z,6.47
2018-12-20T05:52:32.192Z,6.20
2018-12-20T05:55:00.820Z,6.70
2018-12-20T05:57:29.610Z,6.97
2018-12-20T05:59:58.920Z,6.53
2018-12-20T06:02:27.720Z,6.70
2018-12-20T06:04:56.584Z,6.47
2018-12-20T06:07:25.314Z,5.63
2018-12-20T06:09:54.046Z,6.87
2018-12-20T06:12:22.835Z,6.20
2018-12-20T06:14:51.543Z,7.20
2018-12-20T06:17:20.506Z,6.70
2018-12-20T06:19:49.274Z,6.87
2018-12-20T06:22:17.996Z,6.77
2018-12-20T06:24:46.934Z,8.07
2018-12-20T06:27:15.639Z,6.60
2018-12-20T06:29:44.169Z,6.57
2018-12-20T06:32:12.657Z,6.47
2018-12-20T06:34:41.383Z,7.77
2018-12-20T06:37:10.767Z,8.50
2018-12-20T06:39:39.329Z,8.30
2018-12-20T06:42:07.960Z,7.67
2018-12-20T06:44:36.607Z,8.27
2018-12-20T06:47:05.113Z,9.23
2018-12-20T06:49:33.606Z,9.27
2018-12-20T06:52:02.185Z,8.77
2018-12-20T06:54:30.786Z,9.40
2018-12-20T06:56:59.520Z,8.40
2018-12-20T06:59:28.188Z,9.57
2018-12-20T07:01:56.842Z,9.23
2018-12-20T07:04:25.486Z,9.20
2018-12-20T07:06:54.028Z,8.83
2018-12-20T07:09:22.508Z,8.70
2018-12-20T07:11:51.006Z,9.33
2018-12-20T07:14:19.802Z,9.27
2018-12-20T07:16:48.448Z,8.73
2018-12-20T07:19:17.059Z,8.93
2018-12-20T07:21:45.667Z,9.43
2018-12-20T07:24:14.177Z,9.83
2018-12-20T07:26:42.855Z,8.80
2018-12-20T07:29:11.615Z,9.97
2018-12-20T07:31:40.239Z,10.33
2018-12-20T07:34:08.942Z,8.67
2018-12-20T07:36:37.786Z,9.57
2018-12-20T07:39:08.182Z,9.57
2018-12-20T07:41:36.719Z,8.77
2018-12-20T07:44:05.517Z,9.47
2018-12-20T07:46:37.852Z,9.30
2018-12-20T07:49:04.661Z,9.00
2018-12-20T07:51:33.359Z,9.20
2018-12-20T07:54:02.001Z,9.10
2018-12-20T07:56:30.784Z,9.13
2018-12-20T07:58:59.421Z,10.70
2018-12-20T08:01:28.243Z,9.90
2018-12-20T08:03:56.676Z,10.53
2018-12-20T08:06:25.467Z,12.17
2018-12-20T08:08:54.112Z,10.03
2018-12-20T08:11:22.927Z,21.13
2018-12-20T08:13:51.614Z,19.03
2018-12-20T08:16:20.329Z,15.20
2018-12-20T08:18:49.137Z,14.60
2018-12-20T08:21:17.756Z,11.17
2018-12-20T08:23:46.474Z,10.20
2018-12-20T08:26:15.170Z,9.13
2018-12-20T08:28:43.796Z,9.30
2018-12-20T08:31:12.479Z,9.80
2018-12-20T08:33:41.096Z,9.57
2018-12-20T08:36:10.468Z,10.47
2018-12-20T08:38:41.053Z,10.20
2018-12-20T08:41:09.689Z,9.50
2018-12-20T08:43:39.202Z,9.20
2018-12-20T08:46:07.929Z,9.03
2018-12-20T08:48:36.413Z,11.27
2018-12-20T08:51:05.002Z,9.80
2018-12-20T08:53:33.715Z,8.47
2018-12-20T08:56:02.393Z,9.57
2018-12-20T08:58:31.039Z,8.90
2018-12-20T09:01:01.159Z,8.27
2018-12-20T09:03:29.657Z,8.40
2018-12-20T09:05:58.238Z,8.70
2018-12-20T09:08:26.857Z,8.73
2018-12-20T09:10:55.495Z,9.20
2018-12-20T09:13:24.072Z,9.73
2018-12-20T09:15:52.724Z,9.10
2018-12-20T09:18:21.198Z,9.50
2018-12-20T09:20:49.799Z,10.83
2018-12-20T09:23:18.578Z,8.63
2018-12-20T09:25:47.354Z,7.43
2018-12-20T09:28:16.153Z,8.67
2018-12-20T09:30:44.768Z,8.43
2018-12-20T09:33:13.434Z,7.70
2018-12-20T09:35:42.325Z,8.27
2018-12-20T09:38:10.822Z,8.47
2018-12-20T09:40:39.602Z,9.07
2018-12-20T09:43:08.122Z,8.73
2018-12-20T09:45:36.879Z,8.97
2018-12-20T09:48:05.578Z,8.47
2018-12-20T09:50:34.950Z,8.50
2018-12-20T09:53:03.446Z,8.80
2018-12-20T09:55:32.129Z,9.13
2018-12-20T09:58:00.948Z,9.37
2018-12-20T10:00:29.750Z,8.77
2018-12-20T10:02:58.318Z,8.87
2018-12-20T10:05:26.884Z,9.07
2018-12-20T10:07:55.900Z,9.50
2018-12-20T10:10:25.126Z,9.90
2018-12-20T10:12:53.715Z,8.70
2018-12-20T10:15:22.476Z,8.47
2018-12-20T10:17:51.189Z,8.37
2018-12-20T10:20:19.918Z,9.00
2018-12-20T10:22:48.414Z,9.60
2018-12-20T10:25:17.329Z,10.00
2018-12-20T10:27:46.067Z,7.93
2018-12-20T10:30:14.763Z,6.43
2018-12-20T10:32:44.648Z,5.87
2018-12-20T10:35:13.773Z,6.43
2018-12-20T10:37:42.685Z,6.23
2018-12-20T10:40:11.407Z,6.03
2018-12-20T10:42:40.339Z,6.90
2018-12-20T10:45:09.181Z,8.03
2018-12-20T10:47:38.000Z,8.87
2018-12-20T10:50:07.956Z,9.27
2018-12-20T10:52:36.808Z,9.20
2018-12-20T10:55:05.575Z,8.67
2018-12-20T10:57:34.519Z,7.30
2018-12-20T11:00:03.990Z,7.60
2018-12-20T11:02:38.176Z,7.17
2018-12-20T11:05:12.278Z,7.23
2018-12-20T11:07:46.451Z,6.63
2018-12-20T11:10:31.976Z,6.63
2018-12-20T11:13:05.091Z,6.37
2018-12-20T11:15:34.584Z,6.73
2018-12-20T11:18:03.512Z,6.43
2018-12-20T11:20:32.284Z,6.73
2018-12-20T11:23:01.874Z,6.53
2018-12-20T11:25:31.421Z,6.87
2018-12-20T11:28:00.475Z,7.10
2018-12-20T11:30:29.237Z,7.80
2018-12-20T11:32:59.631Z,7.40
2018-12-20T11:35:28.704Z,7.77
2018-12-20T11:37:57.468Z,7.00
2018-12-20T11:40:26.203Z,7.30
2018-12-20T11:42:54.946Z,7.30
2018-12-20T11:45:23.563Z,7.53
2018-12-20T11:47:52.219Z,8.20
2018-12-20T11:50:20.949Z,8.93
2018-12-20T11:52:49.679Z,9.03
2018-12-20T11:55:18.394Z,9.17
2018-12-20T11:57:47.002Z,9.33
2018-12-20T12:00:15.897Z,10.57
2018-12-20T12:02:44.385Z,9.63
2018-12-20T12:05:13.109Z,9.27
2018-12-20T12:07:41.736Z,10.03
2018-12-20T12:10:10.360Z,9.40
2018-12-20T12:12:39.574Z,9.43
2018-12-20T12:15:08.525Z,9.83
2018-12-20T12:17:37.269Z,10.83
2018-12-20T12:20:07.004Z,10.30
2018-12-20T12:22:35.701Z,10.67
2018-12-20T12:25:05.093Z,10.37
2018-12-20T12:27:33.746Z,10.07
2018-12-20T12:30:02.349Z,10.37
2018-12-20T12:32:30.991Z,10.20
2018-12-20T12:34:59.536Z,10.93
2018-12-20T12:37:28.171Z,10.27
2018-12-20T12:39:56.680Z,10.50
2018-12-20T12:42:25.545Z,10.30
2018-12-20T12:44:54.230Z,9.93
2018-12-20T12:47:28.099Z,10.97
2018-12-20T12:49:57.229Z,10.10
2018-12-20T12:52:25.699Z,9.97
2018-12-20T12:54:54.329Z,10.47
2018-12-20T12:57:23.011Z,10.47
2018-12-20T12:59:52.428Z,9.27
2018-12-20T13:02:21.158Z,8.13
2018-12-20T13:04:49.950Z,8.63
2018-12-20T13:07:18.801Z,7.97
2018-12-20T13:09:47.582Z,8.00
2018-12-20T13:12:16.752Z,8.40
2018-12-20T13:14:45.436Z,7.30
2018-12-20T13:17:14.327Z,7.57
2018-12-20T13:19:42.953Z,8.07
2018-12-20T13:22:11.699Z,7.53
2018-12-20T13:24:40.344Z,7.43
2018-12-20T13:27:09.184Z,7.20
2018-12-20T13:29:37.714Z,7.40
2018-12-20T13:32:06.359Z,7.97
2018-12-20T13:34:34.855Z,7.23
2018-12-20T13:37:03.387Z,7.90
2018-12-20T13:39:32.003Z,8.20
2018-12-20T13:42:00.518Z,7.00
2018-12-20T13:44:29.327Z,7.30
2018-12-20T13:46:58.117Z,7.53
2018-12-20T13:49:26.830Z,7.10
2018-12-20T13:51:55.407Z,7.30
2018-12-20T13:54:24.052Z,7.37
2018-12-20T13:56:52.818Z,6.87
2018-12-20T13:59:21.456Z,7.17
2018-12-20T14:01:50.195Z,7.40
2018-12-20T14:04:18.919Z,7.27
2018-12-20T14:06:48.316Z,7.50
2018-12-20T14:09:16.925Z,8.37
2018-12-20T14:11:45.586Z,7.87
2018-12-20T14:14:14.621Z,8.20
2018-12-20T14:16:43.665Z,8.03
2018-12-20T14:19:12.339Z,8.60
2018-12-20T14:21:40.987Z,8.50
2018-12-20T14:24:09.696Z,8.73
2018-12-20T14:26:38.309Z,9.07
2018-12-20T14:29:07.153Z,9.47
2018-12-20T14:31:35.884Z,8.70
2018-12-20T14:34:04.530Z,8.70
2018-12-20T14:36:33.284Z,8.90
2018-12-20T14:39:02.147Z,8.93
2018-12-20T14:41:30.809Z,9.40
2018-12-20T14:43:59.428Z,8.97
2018-12-20T14:46:28.940Z,8.83
2018-12-20T14:48:57.654Z,9.53
2018-12-20T14:51:26.435Z,8.27
2018-12-20T14:53:55.019Z,8.60
2018-12-20T14:56:23.734Z,9.13
2018-12-20T14:58:52.206Z,7.70
2018-12-20T15:01:20.893Z,8.40
2018-12-20T15:03:49.400Z,7.90
2018-12-20T15:06:18.264Z,8.10
2018-12-20T15:08:47.232Z,7.67
2018-12-20T15:11:16.317Z,8.23
2018-12-20T15:13:45.113Z,7.60
2018-12-20T15:16:13.700Z,8.73
2018-12-20T15:18:47.600Z,7.77
2018-12-20T15:21:13.394Z,8.47
2018-12-20T15:23:42.648Z,8.73
2018-12-20T15:26:11.391Z,8.90
2018-12-20T15:28:40.031Z,8.87
2018-12-20T15:31:08.570Z,8.73
2018-12-20T15:33:37.195Z,9.10
2018-12-20T15:36:05.791Z,9.70
2018-12-20T15:38:34.578Z,9.67
2018-12-20T15:41:03.701Z,10.17
2018-12-20T15:43:33.391Z,10.50
2018-12-20T15:46:02.512Z,10.17
2018-12-20T15:48:31.456Z,10.63
2018-12-20T15:51:00.417Z,11.47
2018-12-20T15:53:29.040Z,10.63
2018-12-20T15:55:58.745Z,13.43
2018-12-20T15:58:27.399Z,12.30
2018-12-20T16:00:56.190Z,12.70
2018-12-20T16:03:25.400Z,12.40
2018-12-20T16:05:54.182Z,12.00
2018-12-20T16:08:23.180Z,12.50
2018-12-20T16:10:51.900Z,13.47
2018-12-20T16:13:20.642Z,13.23
2018-12-20T16:15:49.500Z,13.47
2018-12-20T16:18:18.288Z,12.63
2018-12-20T16:20:47.224Z,14.60
2018-12-20T16:23:16.166Z,13.70
2018-12-20T16:25:44.954Z,13.70
2018-12-20T16:28:13.823Z,15.33
2018-12-20T16:30:42.623Z,14.17
2018-12-20T16:33:11.494Z,13.83
2018-12-20T16:35:40.289Z,14.07
2018-12-20T16:38:09.060Z,13.77
2018-12-20T16:40:37.731Z,14.87
2018-12-20T16:43:06.631Z,15.03
2018-12-20T16:45:35.505Z,15.33
2018-12-20T16:48:04.457Z,15.03
2018-12-20T16:50:33.443Z,15.20
2018-12-20T16:53:02.281Z,15.47
2018-12-20T16:55:31.085Z,15.80
2018-12-20T16:57:59.793Z,15.03
2018-12-20T17:00:28.652Z,14.93
2018-12-20T17:02:57.424Z,15.67
2018-12-20T17:05:26.831Z,15.03
2018-12-20T17:07:55.707Z,16.43
2018-12-20T17:10:24.688Z,15.93
2018-12-20T17:12:53.404Z,16.93
2018-12-20T17:15:22.240Z,16.37
2018-12-20T17:17:51.848Z,16.23
2018-12-20T17:20:20.739Z,15.60
2018-12-20T17:22:49.893Z,17.30
2018-12-20T17:25:18.705Z,17.53
2018-12-20T17:27:48.306Z,17.20
2018-12-20T17:30:17.848Z,14.53
2018-12-20T17:32:48.346Z,14.40
2018-12-20T17:35:17.333Z,14.93
2018-12-20T17:37:46.414Z,14.80
2018-12-20T17:40:16.477Z,17.07
2018-12-20T17:42:45.412Z,16.93
2018-12-20T17:45:14.027Z,16.67
2018-12-20T17:47:42.771Z,13.83
2018-12-20T17:50:11.729Z,13.33
2018-12-20T17:52:41.307Z,15.00
2018-12-20T17:55:10.315Z,15.10
2018-12-20T17:57:39.393Z,16.20
2018-12-20T18:00:10.758Z,15.13
2018-12-20T18:02:39.540Z,16.23
2018-12-20T18:05:08.385Z,17.17
2018-12-20T18:07:37.406Z,16.83
2018-12-20T18:10:09.912Z,16.97
2018-12-20T18:12:38.759Z,16.77
2018-12-20T18:15:10.072Z,16.30
2018-12-20T18:17:39.555Z,17.10
2018-12-20T18:20:10.362Z,17.57
2018-12-20T18:22:39.967Z,17.27
2018-12-20T18:25:08.926Z,17.57
2018-12-20T18:27:37.612Z,18.27
2018-12-20T18:30:09.565Z,18.80
2018-12-20T18:32:38.441Z,17.70
2018-12-20T18:35:08.443Z,18.23
2018-12-20T18:37:36.969Z,18.07
2018-12-20T18:40:07.530Z,17.70
2018-12-20T18:42:36.616Z,18.23
2018-12-20T18:45:06.441Z,18.10
2018-12-20T18:47:35.187Z,18.27
2018-12-20T18:50:03.911Z,17.70
2018-12-20T18:52:32.511Z,17.03
2018-12-20T18:55:01.293Z,17.87
2018-12-20T18:57:30.132Z,17.67
2018-12-20T18:59:58.906Z,18.37
2018-12-20T19:02:27.617Z,17.90
2018-12-20T19:04:56.435Z,16.93
2018-12-20T19:07:25.210Z,17.83
2018-12-20T19:09:53.772Z,18.20
2018-12-20T19:12:22.434Z,17.60
2018-12-20T19:14:50.924Z,19.70
2018-12-20T19:17:19.756Z,18.63
2018-12-20T19:22:20.425Z,18.20
2018-12-20T19:22:56.219Z,19.20
2018-12-20T19:24:48.939Z,19.50
2018-12-20T19:27:17.638Z,18.90
2018-12-20T19:29:46.197Z,18.67
2018-12-20T19:32:14.834Z,18.43
2018-12-20T19:34:43.726Z,18.93
2018-12-20T19:37:12.512Z,17.63
2018-12-20T19:39:42.033Z,18.83
2018-12-20T19:42:13.290Z,18.97
2018-12-20T19:44:41.871Z,19.00
2018-12-20T19:47:10.372Z,19.27
2018-12-20T19:49:39.594Z,18.70
2018-12-20T19:52:08.187Z,19.03
2018-12-20T19:54:36.927Z,19.50
2018-12-20T19:57:05.520Z,19.33
2018-12-20T19:59:38.653Z,20.37
2018-12-20T20:02:05.075Z,19.07
2018-12-20T20:04:33.887Z,20.00
2018-12-20T20:07:02.586Z,20.20
2018-12-20T20:09:31.106Z,21.17
2018-12-20T20:11:59.719Z,19.07
2018-12-20T20:14:28.463Z,21.00
2018-12-20T20:16:57.108Z,20.03
2018-12-20T20:19:25.861Z,20.60
2018-12-20T20:21:54.604Z,21.23
2018-12-20T20:24:23.448Z,20.13
2018-12-20T20:26:52.027Z,21.90
2018-12-20T20:29:20.660Z,20.57
2018-12-20T20:31:49.568Z,19.57
2018-12-20T20:34:18.141Z,21.57
2018-12-20T20:36:46.775Z,21.80
2018-12-20T20:39:15.502Z,20.70
2018-12-20T20:41:44.293Z,20.93
2018-12-20T20:44:13.035Z,21.20
2018-12-20T20:46:41.590Z,21.77
2018-12-20T20:49:10.189Z,20.47
2018-12-20T20:51:38.800Z,19.50
2018-12-20T20:54:07.329Z,20.03
2018-12-20T20:56:35.866Z,20.90
2018-12-20T20:59:04.546Z,20.60
2018-12-20T21:01:33.133Z,20.53
2018-12-20T21:04:03.810Z,20.20
2018-12-20T21:06:32.347Z,20.30
2018-12-20T21:09:01.359Z,20.40
2018-12-20T21:11:30.006Z,20.60
2018-12-20T21:13:58.926Z,20.47
2018-12-20T21:16:28.301Z,20.80
2018-12-20T21:18:56.888Z,20.50
2018-12-20T21:21:25.689Z,21.70
2018-12-20T21:23:54.281Z,22.03
2018-12-20T21:26:23.048Z,21.10
2018-12-20T21:28:51.745Z,20.70
2018-12-20T21:31:20.339Z,20.87
2018-12-20T21:33:50.262Z,20.57
2018-12-20T21:36:19.015Z,21.50
2018-12-20T21:38:47.850Z,21.67
2018-12-20T21:41:16.549Z,23.63
2018-12-20T21:43:45.270Z,21.20
2018-12-20T21:46:13.832Z,20.57
2018-12-20T21:48:42.682Z,22.20
2018-12-20T21:51:11.325Z,21.23
2018-12-20T21:53:40.045Z,20.77
2018-12-20T21:56:08.834Z,21.77
2018-12-20T21:58:37.515Z,19.80
2018-12-20T22:01:06.187Z,19.80
2018-12-20T22:03:34.808Z,19.63
2018-12-20T22:06:03.563Z,20.13
2018-12-20T22:08:32.212Z,20.23
2018-12-20T22:11:00.910Z,21.23
2018-12-20T22:13:29.427Z,21.37
2018-12-20T22:15:58.092Z,20.30
2018-12-20T22:18:27.018Z,19.60
2018-12-20T22:20:55.859Z,20.63
2018-12-20T22:23:24.488Z,19.63
2018-12-20T22:25:53.252Z,21.73
2018-12-20T22:28:21.942Z,21.17
2018-12-20T22:30:51.385Z,20.00
2018-12-20T22:33:20.078Z,21.63
2018-12-20T22:35:48.687Z,21.77
2018-12-20T22:38:17.421Z,21.43
2018-12-20T22:40:46.258Z,19.67
2018-12-20T22:43:14.895Z,19.30
2018-12-20T22:45:43.731Z,20.30
2018-12-20T22:48:12.461Z,20.20
2018-12-20T22:50:41.082Z,21.60
2018-12-20T22:53:09.881Z,19.90
2018-12-20T22:55:38.556Z,19.17
2018-12-20T22:58:07.186Z,20.27
2018-12-20T23:00:36.053Z,20.27
2018-12-20T23:03:05.274Z,20.30
2018-12-20T23:05:33.999Z,20.23
2018-12-20T23:08:03.059Z,20.73
2018-12-20T23:10:31.811Z,20.60
2018-12-20T23:13:00.594Z,20.97
2018-12-20T23:15:29.102Z,22.30
2018-12-20T23:17:57.912Z,22.37
2018-12-20T23:20:26.730Z,22.07
2018-12-20T23:22:55.526Z,21.80
2018-12-20T23:25:24.656Z,22.60
2018-12-20T23:27:53.336Z,21.77
2018-12-20T23:30:22.293Z,20.60
2018-12-20T23:32:51.889Z,20.67
2018-12-20T23:35:21.040Z,20.87
2018-12-20T23:37:49.709Z,21.53
2018-12-20T23:40:18.619Z,21.20
2018-12-20T23:42:47.585Z,19.60
2018-12-20T23:45:20.666Z,21.63
2018-12-20T23:47:49.610Z,21.07
2018-12-20T23:50:18.356Z,22.27
2018-12-20T23:52:47.284Z,21.90
2018-12-20T23:55:16.068Z,22.17
2018-12-20T23:57:44.852Z,21.90
